sensor_id;sensor_type;location;lat;lon;timestamp;P1;durP1;ratioP1;P2;durP2;ratioP2
26536;SDS011;14204;51.262;5.488;2022-12-20T00:00:13;2.83;;;2.15;;
26536;SDS011;14204;51.262;5.488;2022-12-20T00:02:39;3.33;;;1.90;;
26536;SDS011;14204;51.262;5.488;2022-12-20T00:05:05;2.53;;;1.88;;
26536;SDS011;14204;51.262;5.488;2022-12-20T00:07:31;2.60;;;2.05;;
26536;SDS011;14204;51.262;5.488;2022-12-20T00:09:57;2.92;;;1.70;;
26536;SDS011;14204;51.262;5.488;2022-12-20T00:12:22;2.60;;;1.83;;
26536;SDS011;14204;51.262;5.488;2022-12-20T00:14:48;2.45;;;1.55;;
26536;SDS011;14204;51.262;5.488;2022-12-20T00:17:14;3.95;;;2.00;;
26536;SDS011;14204;51.262;5.488;2022-12-20T00:19:39;4.97;;;2.00;;
26536;SDS011;14204;51.262;5.488;2022-12-20T00:22:07;3.45;;;2.03;;
26536;SDS011;14204;51.262;5.488;2022-12-20T00:24:32;4.30;;;2.00;;
26536;SDS011;14204;51.262;5.488;2022-12-20T00:26:58;3.83;;;2.38;;
26536;SDS011;14204;51.262;5.488;2022-12-20T00:29:24;3.95;;;1.67;;
26536;SDS011;14204;51.262;5.488;2022-12-20T00:31:49;3.30;;;2.30;;
26536;SDS011;14204;51.262;5.488;2022-12-20T00:34:15;6.68;;;2.05;;
26536;SDS011;14204;51.262;5.488;2022-12-20T00:36:40;2.85;;;1.90;;
26536;SDS011;14204;51.262;5.488;2022-12-20T00:39:06;3.03;;;1.80;;
26536;SDS011;14204;51.262;5.488;2022-12-20T00:41:33;2.65;;;1.77;;
26536;SDS011;14204;51.262;5.488;2022-12-20T00:44:00;2.53;;;1.83;;
26536;SDS011;14204;51.262;5.488;2022-12-20T00:46:26;2.95;;;1.80;;
26536;SDS011;14204;51.262;5.488;2022-12-20T00:48:52;4.47;;;2.10;;
26536;SDS011;14204;51.262;5.488;2022-12-20T00:51:20;3.42;;;2.20;;
26536;SDS011;14204;51.262;5.488;2022-12-20T00:53:48;2.70;;;2.05;;
26536;SDS011;14204;51.262;5.488;2022-12-20T00:56:14;2.83;;;2.08;;
26536;SDS011;14204;51.262;5.488;2022-12-20T00:58:40;4.97;;;2.42;;
26536;SDS011;14204;51.262;5.488;2022-12-20T01:01:13;2.50;;;1.80;;
26536;SDS011;14204;51.262;5.488;2022-12-20T01:03:42;5.68;;;1.88;;
26536;SDS011;14204;51.262;5.488;2022-12-20T01:06:08;2.50;;;1.75;;
26536;SDS011;14204;51.262;5.488;2022-12-20T01:08:34;4.72;;;2.05;;
26536;SDS011;14204;51.262;5.488;2022-12-20T01:11:04;2.47;;;2.10;;
26536;SDS011;14204;51.262;5.488;2022-12-20T01:13:42;4.43;;;1.83;;
26536;SDS011;14204;51.262;5.488;2022-12-20T01:16:11;2.75;;;1.58;;
26536;SDS011;14204;51.262;5.488;2022-12-20T01:18:48;2.78;;;1.83;;
26536;SDS011;14204;51.262;5.488;2022-12-20T01:21:14;2.45;;;2.25;;
26536;SDS011;14204;51.262;5.488;2022-12-20T01:23:41;6.45;;;1.85;;
26536;SDS011;14204;51.262;5.488;2022-12-20T01:26:09;5.50;;;1.88;;
26536;SDS011;14204;51.262;5.488;2022-12-20T01:28:37;5.45;;;2.22;;
26536;SDS011;14204;51.262;5.488;2022-12-20T01:31:05;4.35;;;2.53;;
26536;SDS011;14204;51.262;5.488;2022-12-20T01:33:34;4.68;;;2.00;;
26536;SDS011;14204;51.262;5.488;2022-12-20T01:36:01;5.85;;;2.50;;
26536;SDS011;14204;51.262;5.488;2022-12-20T01:38:28;3.38;;;2.40;;
26536;SDS011;14204;51.262;5.488;2022-12-20T01:40:56;4.53;;;2.30;;
26536;SDS011;14204;51.262;5.488;2022-12-20T01:43:23;4.13;;;2.40;;
26536;SDS011;14204;51.262;5.488;2022-12-20T01:45:50;3.42;;;2.13;;
26536;SDS011;14204;51.262;5.488;2022-12-20T01:48:20;3.95;;;2.25;;
26536;SDS011;14204;51.262;5.488;2022-12-20T01:50:49;4.22;;;2.40;;
26536;SDS011;14204;51.262;5.488;2022-12-20T01:53:16;6.82;;;2.70;;
26536;SDS011;14204;51.262;5.488;2022-12-20T01:55:45;4.75;;;2.25;;
26536;SDS011;14204;51.262;5.488;2022-12-20T01:58:11;3.95;;;2.38;;
26536;SDS011;14204;51.262;5.488;2022-12-20T02:00:40;5.65;;;2.80;;
26536;SDS011;14204;51.262;5.488;2022-12-20T02:03:08;3.40;;;2.15;;
26536;SDS011;14204;51.262;5.488;2022-12-20T02:05:37;6.72;;;2.40;;
26536;SDS011;14204;51.262;5.488;2022-12-20T02:08:04;3.53;;;2.28;;
26536;SDS011;14204;51.262;5.488;2022-12-20T02:10:40;4.85;;;1.90;;
26536;SDS011;14204;51.262;5.488;2022-12-20T02:13:27;4.93;;;2.00;;
26536;SDS011;14204;51.262;5.488;2022-12-20T02:16:00;5.50;;;2.10;;
26536;SDS011;14204;51.262;5.488;2022-12-20T02:18:31;4.75;;;2.08;;
26536;SDS011;14204;51.262;5.488;2022-12-20T02:24:51;3.08;;;2.30;;
26536;SDS011;14204;51.262;5.488;2022-12-20T02:30:27;3.13;;;2.35;;
26536;SDS011;14204;51.262;5.488;2022-12-20T02:33:07;4.90;;;2.08;;
26536;SDS011;14204;51.262;5.488;2022-12-20T02:35:37;3.25;;;2.42;;
26536;SDS011;14204;51.262;5.488;2022-12-20T02:38:22;2.53;;;1.95;;
26536;SDS011;14204;51.262;5.488;2022-12-20T02:40:52;3.38;;;2.28;;
26536;SDS011;14204;51.262;5.488;2022-12-20T02:43:22;2.75;;;2.00;;
26536;SDS011;14204;51.262;5.488;2022-12-20T02:46:07;4.65;;;2.35;;
26536;SDS011;14204;51.262;5.488;2022-12-20T02:48:34;2.85;;;2.15;;
26536;SDS011;14204;51.262;5.488;2022-12-20T02:51:03;3.45;;;2.50;;
26536;SDS011;14204;51.262;5.488;2022-12-20T02:53:30;3.63;;;2.22;;
26536;SDS011;14204;51.262;5.488;2022-12-20T02:56:09;4.03;;;1.95;;
26536;SDS011;14204;51.262;5.488;2022-12-20T02:58:50;2.22;;;1.85;;
26536;SDS011;14204;51.262;5.488;2022-12-20T03:04:23;2.35;;;2.08;;
26536;SDS011;14204;51.262;5.488;2022-12-20T03:06:59;3.95;;;2.22;;
26536;SDS011;14204;51.262;5.488;2022-12-20T03:09:33;2.20;;;2.00;;
26536;SDS011;14204;51.262;5.488;2022-12-20T03:12:01;3.20;;;1.77;;
26536;SDS011;14204;51.262;5.488;2022-12-20T03:14:26;3.53;;;2.22;;
26536;SDS011;14204;51.262;5.488;2022-12-20T03:16:52;3.78;;;1.80;;
26536;SDS011;14204;51.262;5.488;2022-12-20T03:19:18;3.70;;;1.73;;
26536;SDS011;14204;51.262;5.488;2022-12-20T03:21:44;2.13;;;1.80;;
26536;SDS011;14204;51.262;5.488;2022-12-20T03:24:10;7.88;;;2.30;;
26536;SDS011;14204;51.262;5.488;2022-12-20T03:26:38;3.03;;;2.22;;
26536;SDS011;14204;51.262;5.488;2022-12-20T03:29:04;5.40;;;2.00;;
26536;SDS011;14204;51.262;5.488;2022-12-20T03:31:30;4.70;;;2.17;;
26536;SDS011;14204;51.262;5.488;2022-12-20T03:33:55;3.47;;;1.98;;
26536;SDS011;14204;51.262;5.488;2022-12-20T03:36:21;3.95;;;2.20;;
26536;SDS011;14204;51.262;5.488;2022-12-20T03:38:51;4.78;;;2.38;;
26536;SDS011;14204;51.262;5.488;2022-12-20T03:41:18;5.40;;;2.50;;
26536;SDS011;14204;51.262;5.488;2022-12-20T03:43:46;5.82;;;2.58;;
26536;SDS011;14204;51.262;5.488;2022-12-20T03:46:12;3.45;;;2.20;;
26536;SDS011;14204;51.262;5.488;2022-12-20T03:48:38;3.20;;;2.17;;
26536;SDS011;14204;51.262;5.488;2022-12-20T03:51:04;2.28;;;1.88;;
26536;SDS011;14204;51.262;5.488;2022-12-20T03:53:29;2.40;;;2.00;;
26536;SDS011;14204;51.262;5.488;2022-12-20T03:55:55;2.88;;;2.30;;
26536;SDS011;14204;51.262;5.488;2022-12-20T03:58:21;3.28;;;2.42;;
26536;SDS011;14204;51.262;5.488;2022-12-20T04:00:46;3.30;;;2.05;;
26536;SDS011;14204;51.262;5.488;2022-12-20T04:03:12;3.53;;;1.92;;
26536;SDS011;14204;51.262;5.488;2022-12-20T04:05:38;4.93;;;1.95;;
26536;SDS011;14204;51.262;5.488;2022-12-20T04:08:03;3.63;;;2.03;;
26536;SDS011;14204;51.262;5.488;2022-12-20T04:10:29;3.67;;;1.90;;
26536;SDS011;14204;51.262;5.488;2022-12-20T04:12:55;3.15;;;2.28;;
26536;SDS011;14204;51.262;5.488;2022-12-20T04:15:20;5.68;;;2.20;;
26536;SDS011;14204;51.262;5.488;2022-12-20T04:17:46;2.33;;;2.08;;
26536;SDS011;14204;51.262;5.488;2022-12-20T04:20:12;6.13;;;2.40;;
26536;SDS011;14204;51.262;5.488;2022-12-20T04:22:44;5.20;;;2.28;;
26536;SDS011;14204;51.262;5.488;2022-12-20T04:25:14;2.58;;;2.17;;
26536;SDS011;14204;51.262;5.488;2022-12-20T04:27:42;2.58;;;2.20;;
26536;SDS011;14204;51.262;5.488;2022-12-20T04:30:08;2.78;;;1.88;;
26536;SDS011;14204;51.262;5.488;2022-12-20T04:32:34;4.82;;;2.20;;
26536;SDS011;14204;51.262;5.488;2022-12-20T04:35:00;2.38;;;1.58;;
26536;SDS011;14204;51.262;5.488;2022-12-20T04:37:26;3.25;;;1.90;;
26536;SDS011;14204;51.262;5.488;2022-12-20T04:39:52;4.18;;;2.40;;
26536;SDS011;14204;51.262;5.488;2022-12-20T04:42:17;3.92;;;2.17;;
26536;SDS011;14204;51.262;5.488;2022-12-20T04:44:43;5.47;;;2.70;;
26536;SDS011;14204;51.262;5.488;2022-12-20T04:47:08;5.68;;;2.22;;
26536;SDS011;14204;51.262;5.488;2022-12-20T04:49:34;4.15;;;2.20;;
26536;SDS011;14204;51.262;5.488;2022-12-20T04:52:00;4.20;;;2.45;;
26536;SDS011;14204;51.262;5.488;2022-12-20T04:54:46;3.05;;;1.90;;
26536;SDS011;14204;51.262;5.488;2022-12-20T04:57:12;5.82;;;2.50;;
26536;SDS011;14204;51.262;5.488;2022-12-20T04:59:37;2.97;;;2.42;;
26536;SDS011;14204;51.262;5.488;2022-12-20T05:02:03;5.07;;;2.28;;
26536;SDS011;14204;51.262;5.488;2022-12-20T05:04:29;3.10;;;2.35;;
26536;SDS011;14204;51.262;5.488;2022-12-20T05:06:54;4.53;;;2.15;;
26536;SDS011;14204;51.262;5.488;2022-12-20T05:09:20;5.40;;;2.28;;
26536;SDS011;14204;51.262;5.488;2022-12-20T05:11:45;6.10;;;2.75;;
26536;SDS011;14204;51.262;5.488;2022-12-20T05:14:11;3.83;;;2.33;;
26536;SDS011;14204;51.262;5.488;2022-12-20T05:16:36;4.20;;;2.47;;
26536;SDS011;14204;51.262;5.488;2022-12-20T05:19:02;3.15;;;2.30;;
26536;SDS011;14204;51.262;5.488;2022-12-20T05:21:28;4.20;;;2.20;;
26536;SDS011;14204;51.262;5.488;2022-12-20T05:24:14;7.70;;;2.53;;
26536;SDS011;14204;51.262;5.488;2022-12-20T05:26:58;4.40;;;2.58;;
26536;SDS011;14204;51.262;5.488;2022-12-20T05:29:24;5.68;;;2.80;;
26536;SDS011;14204;51.262;5.488;2022-12-20T05:31:50;5.78;;;2.13;;
26536;SDS011;14204;51.262;5.488;2022-12-20T05:34:15;6.38;;;2.58;;
26536;SDS011;14204;51.262;5.488;2022-12-20T05:36:41;5.07;;;2.15;;
26536;SDS011;14204;51.262;5.488;2022-12-20T05:39:08;3.97;;;2.10;;
26536;SDS011;14204;51.262;5.488;2022-12-20T05:41:33;2.67;;;2.13;;
26536;SDS011;14204;51.262;5.488;2022-12-20T05:43:59;4.00;;;1.98;;
26536;SDS011;14204;51.262;5.488;2022-12-20T05:46:24;2.72;;;2.10;;
26536;SDS011;14204;51.262;5.488;2022-12-20T05:48:50;3.13;;;2.33;;
26536;SDS011;14204;51.262;5.488;2022-12-20T05:51:16;2.97;;;2.03;;
26536;SDS011;14204;51.262;5.488;2022-12-20T05:53:42;2.90;;;2.17;;
26536;SDS011;14204;51.262;5.488;2022-12-20T05:56:07;3.78;;;2.25;;
26536;SDS011;14204;51.262;5.488;2022-12-20T05:58:33;4.43;;;2.20;;
26536;SDS011;14204;51.262;5.488;2022-12-20T06:00:59;3.13;;;1.88;;
26536;SDS011;14204;51.262;5.488;2022-12-20T06:03:26;4.72;;;2.00;;
26536;SDS011;14204;51.262;5.488;2022-12-20T06:05:52;4.32;;;2.60;;
26536;SDS011;14204;51.262;5.488;2022-12-20T06:08:18;3.97;;;2.00;;
26536;SDS011;14204;51.262;5.488;2022-12-20T06:10:45;2.25;;;1.90;;
26536;SDS011;14204;51.262;5.488;2022-12-20T06:13:12;5.30;;;2.10;;
26536;SDS011;14204;51.262;5.488;2022-12-20T06:15:37;10.23;;;1.95;;
26536;SDS011;14204;51.262;5.488;2022-12-20T06:18:03;4.15;;;1.63;;
26536;SDS011;14204;51.262;5.488;2022-12-20T06:20:30;4.65;;;1.70;;
26536;SDS011;14204;51.262;5.488;2022-12-20T06:22:56;5.75;;;2.47;;
26536;SDS011;14204;51.262;5.488;2022-12-20T06:25:21;3.42;;;2.28;;
26536;SDS011;14204;51.262;5.488;2022-12-20T06:27:47;3.63;;;2.53;;
26536;SDS011;14204;51.262;5.488;2022-12-20T06:30:13;5.30;;;2.13;;
26536;SDS011;14204;51.262;5.488;2022-12-20T06:32:40;2.35;;;2.15;;
26536;SDS011;14204;51.262;5.488;2022-12-20T06:35:06;6.30;;;3.25;;
26536;SDS011;14204;51.262;5.488;2022-12-20T06:37:32;4.05;;;2.28;;
26536;SDS011;14204;51.262;5.488;2022-12-20T06:39:57;8.07;;;5.60;;
26536;SDS011;14204;51.262;5.488;2022-12-20T06:42:24;4.45;;;3.80;;
26536;SDS011;14204;51.262;5.488;2022-12-20T06:44:49;2.95;;;1.90;;
26536;SDS011;14204;51.262;5.488;2022-12-20T06:47:15;2.83;;;1.90;;
26536;SDS011;14204;51.262;5.488;2022-12-20T06:49:40;2.50;;;1.65;;
26536;SDS011;14204;51.262;5.488;2022-12-20T06:52:06;2.53;;;1.77;;
26536;SDS011;14204;51.262;5.488;2022-12-20T06:54:32;3.63;;;1.65;;
26536;SDS011;14204;51.262;5.488;2022-12-20T06:56:57;2.97;;;2.15;;
26536;SDS011;14204;51.262;5.488;2022-12-20T06:59:23;3.38;;;2.17;;
26536;SDS011;14204;51.262;5.488;2022-12-20T07:01:48;2.95;;;1.88;;
26536;SDS011;14204;51.262;5.488;2022-12-20T07:04:14;2.42;;;1.50;;
26536;SDS011;14204;51.262;5.488;2022-12-20T07:06:39;6.40;;;1.52;;
26536;SDS011;14204;51.262;5.488;2022-12-20T07:09:05;3.05;;;1.80;;
26536;SDS011;14204;51.262;5.488;2022-12-20T07:11:31;3.72;;;1.60;;
26536;SDS011;14204;51.262;5.488;2022-12-20T07:13:57;4.95;;;1.60;;
26536;SDS011;14204;51.262;5.488;2022-12-20T07:16:23;2.42;;;1.30;;
26536;SDS011;14204;51.262;5.488;2022-12-20T07:18:52;2.58;;;1.55;;
26536;SDS011;14204;51.262;5.488;2022-12-20T07:21:18;2.50;;;1.40;;
26536;SDS011;14204;51.262;5.488;2022-12-20T07:23:45;3.97;;;1.75;;
26536;SDS011;14204;51.262;5.488;2022-12-20T07:26:11;3.03;;;1.77;;
26536;SDS011;14204;51.262;5.488;2022-12-20T07:28:38;4.88;;;1.70;;
26536;SDS011;14204;51.262;5.488;2022-12-20T07:31:03;3.28;;;2.25;;
26536;SDS011;14204;51.262;5.488;2022-12-20T07:33:30;2.40;;;1.67;;
26536;SDS011;14204;51.262;5.488;2022-12-20T07:36:00;3.78;;;2.05;;
26536;SDS011;14204;51.262;5.488;2022-12-20T07:38:27;2.15;;;1.98;;
26536;SDS011;14204;51.262;5.488;2022-12-20T07:40:53;4.75;;;2.22;;
26536;SDS011;14204;51.262;5.488;2022-12-20T07:43:18;3.38;;;1.60;;
26536;SDS011;14204;51.262;5.488;2022-12-20T07:45:44;4.88;;;1.98;;
26536;SDS011;14204;51.262;5.488;2022-12-20T07:48:11;2.50;;;1.50;;
26536;SDS011;14204;51.262;5.488;2022-12-20T07:50:37;3.00;;;1.50;;
26536;SDS011;14204;51.262;5.488;2022-12-20T07:53:04;3.08;;;1.30;;
26536;SDS011;14204;51.262;5.488;2022-12-20T07:55:32;3.80;;;1.50;;
26536;SDS011;14204;51.262;5.488;2022-12-20T07:58:00;3.80;;;1.70;;
26536;SDS011;14204;51.262;5.488;2022-12-20T08:00:30;3.50;;;1.38;;
26536;SDS011;14204;51.262;5.488;2022-12-20T08:03:00;2.92;;;1.50;;
26536;SDS011;14204;51.262;5.488;2022-12-20T08:05:32;2.92;;;1.40;;
26536;SDS011;14204;51.262;5.488;2022-12-20T08:08:00;2.38;;;1.35;;
26536;SDS011;14204;51.262;5.488;2022-12-20T08:10:26;1.95;;;1.40;;
26536;SDS011;14204;51.262;5.488;2022-12-20T08:12:52;2.25;;;1.40;;
26536;SDS011;14204;51.262;5.488;2022-12-20T08:15:19;3.20;;;1.30;;
26536;SDS011;14204;51.262;5.488;2022-12-20T08:17:47;1.83;;;1.67;;
26536;SDS011;14204;51.262;5.488;2022-12-20T08:20:13;3.28;;;1.45;;
26536;SDS011;14204;51.262;5.488;2022-12-20T08:22:39;3.95;;;2.00;;
26536;SDS011;14204;51.262;5.488;2022-12-20T08:25:05;2.30;;;1.50;;
26536;SDS011;14204;51.262;5.488;2022-12-20T08:27:31;3.78;;;1.65;;
26536;SDS011;14204;51.262;5.488;2022-12-20T08:29:57;5.05;;;1.70;;
26536;SDS011;14204;51.262;5.488;2022-12-20T08:32:23;2.95;;;1.83;;
26536;SDS011;14204;51.262;5.488;2022-12-20T08:34:49;4.43;;;2.00;;
26536;SDS011;14204;51.262;5.488;2022-12-20T08:37:15;3.03;;;1.80;;
26536;SDS011;14204;51.262;5.488;2022-12-20T08:39:41;2.22;;;1.80;;
26536;SDS011;14204;51.262;5.488;2022-12-20T08:42:07;2.08;;;1.63;;
26536;SDS011;14204;51.262;5.488;2022-12-20T08:44:33;2.65;;;1.42;;
26536;SDS011;14204;51.262;5.488;2022-12-20T08:46:58;4.25;;;2.03;;
26536;SDS011;14204;51.262;5.488;2022-12-20T08:49:24;5.97;;;2.25;;
26536;SDS011;14204;51.262;5.488;2022-12-20T08:51:49;4.43;;;2.17;;
26536;SDS011;14204;51.262;5.488;2022-12-20T08:54:15;3.38;;;1.80;;
26536;SDS011;14204;51.262;5.488;2022-12-20T08:56:41;5.05;;;1.70;;
26536;SDS011;14204;51.262;5.488;2022-12-20T08:59:07;3.13;;;1.83;;
26536;SDS011;14204;51.262;5.488;2022-12-20T09:01:32;4.47;;;1.73;;
26536;SDS011;14204;51.262;5.488;2022-12-20T09:03:58;2.22;;;1.75;;
26536;SDS011;14204;51.262;5.488;2022-12-20T09:06:25;3.55;;;1.67;;
26536;SDS011;14204;51.262;5.488;2022-12-20T09:08:50;2.97;;;1.80;;
26536;SDS011;14204;51.262;5.488;2022-12-20T09:11:21;2.97;;;1.63;;
26536;SDS011;14204;51.262;5.488;2022-12-20T09:13:50;2.95;;;2.03;;
26536;SDS011;14204;51.262;5.488;2022-12-20T09:16:18;3.53;;;2.10;;
26536;SDS011;14204;51.262;5.488;2022-12-20T09:18:52;3.15;;;1.80;;
26536;SDS011;14204;51.262;5.488;2022-12-20T09:21:19;2.92;;;1.83;;
26536;SDS011;14204;51.262;5.488;2022-12-20T09:23:46;2.60;;;2.03;;
26536;SDS011;14204;51.262;5.488;2022-12-20T09:26:14;3.17;;;1.80;;
26536;SDS011;14204;51.262;5.488;2022-12-20T09:28:41;3.75;;;2.00;;
26536;SDS011;14204;51.262;5.488;2022-12-20T09:31:09;7.05;;;2.40;;
26536;SDS011;14204;51.262;5.488;2022-12-20T09:33:39;3.00;;;1.83;;
26536;SDS011;14204;51.262;5.488;2022-12-20T09:36:06;2.35;;;1.83;;
26536;SDS011;14204;51.262;5.488;2022-12-20T09:38:35;4.30;;;2.05;;
26536;SDS011;14204;51.262;5.488;2022-12-20T09:41:02;5.10;;;1.77;;
26536;SDS011;14204;51.262;5.488;2022-12-20T09:43:29;2.47;;;1.83;;
26536;SDS011;14204;51.262;5.488;2022-12-20T09:45:57;3.80;;;1.85;;
26536;SDS011;14204;51.262;5.488;2022-12-20T09:48:25;2.75;;;1.83;;
26536;SDS011;14204;51.262;5.488;2022-12-20T09:54:02;8.07;;;2.50;;
26536;SDS011;14204;51.262;5.488;2022-12-20T10:02:11;3.53;;;1.75;;
26536;SDS011;14204;51.262;5.488;2022-12-20T10:04:39;6.63;;;2.08;;
26536;SDS011;14204;51.262;5.488;2022-12-20T10:09:59;3.22;;;2.28;;
26536;SDS011;14204;51.262;5.488;2022-12-20T10:15:35;2.63;;;2.22;;
26536;SDS011;14204;51.262;5.488;2022-12-20T10:21:06;4.78;;;2.10;;
26536;SDS011;14204;51.262;5.488;2022-12-20T10:23:58;4.57;;;1.92;;
26536;SDS011;14204;51.262;5.488;2022-12-20T10:26:27;3.97;;;2.25;;
26536;SDS011;14204;51.262;5.488;2022-12-20T10:28:53;2.90;;;1.90;;
26536;SDS011;14204;51.262;5.488;2022-12-20T10:31:19;4.93;;;2.63;;
26536;SDS011;14204;51.262;5.488;2022-12-20T10:33:45;14.60;;;2.80;;
26536;SDS011;14204;51.262;5.488;2022-12-20T10:36:24;6.68;;;2.10;;
26536;SDS011;14204;51.262;5.488;2022-12-20T10:38:55;3.38;;;2.35;;
26536;SDS011;14204;51.262;5.488;2022-12-20T10:41:23;6.10;;;3.30;;
26536;SDS011;14204;51.262;5.488;2022-12-20T10:43:53;5.03;;;2.70;;
26536;SDS011;14204;51.262;5.488;2022-12-20T10:46:35;3.63;;;2.72;;
26536;SDS011;14204;51.262;5.488;2022-12-20T10:49:26;6.28;;;2.58;;
26536;SDS011;14204;51.262;5.488;2022-12-20T10:52:07;7.00;;;3.17;;
26536;SDS011;14204;51.262;5.488;2022-12-20T10:59:50;3.88;;;2.63;;
26536;SDS011;14204;51.262;5.488;2022-12-20T11:07:34;3.90;;;2.65;;
26536;SDS011;14204;51.262;5.488;2022-12-20T11:10:23;4.63;;;3.00;;
26536;SDS011;14204;51.262;5.488;2022-12-20T11:12:56;6.95;;;2.47;;
26536;SDS011;14204;51.262;5.488;2022-12-20T11:15:26;5.30;;;2.88;;
26536;SDS011;14204;51.262;5.488;2022-12-20T11:18:04;4.07;;;2.80;;
26536;SDS011;14204;51.262;5.488;2022-12-20T11:32:12;7.32;;;5.53;;
26536;SDS011;14204;51.262;5.488;2022-12-20T11:35:02;8.70;;;3.00;;
26536;SDS011;14204;51.262;5.488;2022-12-20T11:40:44;7.70;;;2.70;;
26536;SDS011;14204;51.262;5.488;2022-12-20T11:49:03;7.10;;;2.97;;
26536;SDS011;14204;51.262;5.488;2022-12-20T11:51:44;6.18;;;3.08;;
26536;SDS011;14204;51.262;5.488;2022-12-20T11:54:18;5.60;;;3.17;;
26536;SDS011;14204;51.262;5.488;2022-12-20T11:57:09;6.53;;;3.15;;
26536;SDS011;14204;51.262;5.488;2022-12-20T11:59:59;5.10;;;2.63;;
26536;SDS011;14204;51.262;5.488;2022-12-20T12:02:37;5.05;;;2.72;;
26536;SDS011;14204;51.262;5.488;2022-12-20T12:05:27;6.47;;;3.00;;
26536;SDS011;14204;51.262;5.488;2022-12-20T12:08:00;6.93;;;3.50;;
26536;SDS011;14204;51.262;5.488;2022-12-20T12:10:31;5.45;;;2.75;;
26536;SDS011;14204;51.262;5.488;2022-12-20T12:15:39;4.13;;;2.95;;
26536;SDS011;14204;51.262;5.488;2022-12-20T12:18:28;6.70;;;3.40;;
26536;SDS011;14204;51.262;5.488;2022-12-20T12:23:35;7.15;;;3.95;;
26536;SDS011;14204;51.262;5.488;2022-12-20T12:26:19;5.20;;;3.42;;
26536;SDS011;14204;51.262;5.488;2022-12-20T12:28:52;8.48;;;4.03;;
26536;SDS011;14204;51.262;5.488;2022-12-20T12:45:42;5.43;;;3.80;;
26536;SDS011;14204;51.262;5.488;2022-12-20T12:48:22;11.27;;;3.75;;
26536;SDS011;14204;51.262;5.488;2022-12-20T12:50:59;6.10;;;4.10;;
26536;SDS011;14204;51.262;5.488;2022-12-20T12:53:31;6.47;;;4.50;;
26536;SDS011;14204;51.262;5.488;2022-12-20T13:09:21;7.70;;;4.95;;
26536;SDS011;14204;51.262;5.488;2022-12-20T13:12:45;6.65;;;4.88;;
26536;SDS011;14204;51.262;5.488;2022-12-20T13:14:58;6.72;;;4.55;;
26536;SDS011;14204;51.262;5.488;2022-12-20T13:20:22;10.27;;;4.75;;
26536;SDS011;14204;51.262;5.488;2022-12-20T13:23:10;7.38;;;5.43;;
26536;SDS011;14204;51.262;5.488;2022-12-20T13:25:43;10.45;;;5.07;;
26536;SDS011;14204;51.262;5.488;2022-12-20T13:44:18;8.90;;;4.75;;
26536;SDS011;14204;51.262;5.488;2022-12-20T13:47:14;9.73;;;4.88;;
26536;SDS011;14204;51.262;5.488;2022-12-20T13:49:44;8.00;;;4.03;;
26536;SDS011;14204;51.262;5.488;2022-12-20T13:54:39;8.10;;;4.95;;
26536;SDS011;14204;51.262;5.488;2022-12-20T13:57:07;6.72;;;4.70;;
26536;SDS011;14204;51.262;5.488;2022-12-20T13:59:38;9.57;;;4.97;;
26536;SDS011;14204;51.262;5.488;2022-12-20T14:02:08;9.02;;;4.88;;
26536;SDS011;14204;51.262;5.488;2022-12-20T14:04:42;13.48;;;5.90;;
26536;SDS011;14204;51.262;5.488;2022-12-20T14:07:12;9.80;;;5.68;;
26536;SDS011;14204;51.262;5.488;2022-12-20T14:09:42;7.47;;;4.90;;
26536;SDS011;14204;51.262;5.488;2022-12-20T14:12:13;9.93;;;5.07;;
26536;SDS011;14204;51.262;5.488;2022-12-20T14:17:24;10.35;;;5.82;;
26536;SDS011;14204;51.262;5.488;2022-12-20T14:20:05;11.13;;;5.57;;
26536;SDS011;14204;51.262;5.488;2022-12-20T14:22:34;7.45;;;5.18;;
26536;SDS011;14204;51.262;5.488;2022-12-20T14:25:01;10.50;;;5.68;;
26536;SDS011;14204;51.262;5.488;2022-12-20T14:27:32;11.55;;;6.43;;
26536;SDS011;14204;51.262;5.488;2022-12-20T14:30:01;8.70;;;6.00;;
26536;SDS011;14204;51.262;5.488;2022-12-20T14:32:27;9.40;;;5.93;;
26536;SDS011;14204;51.262;5.488;2022-12-20T14:34:53;12.57;;;7.28;;
26536;SDS011;14204;51.262;5.488;2022-12-20T14:39:57;15.65;;;6.57;;
26536;SDS011;14204;51.262;5.488;2022-12-20T14:42:31;11.68;;;6.95;;
26536;SDS011;14204;51.262;5.488;2022-12-20T14:45:03;11.27;;;7.85;;
26536;SDS011;14204;51.262;5.488;2022-12-20T14:48:05;18.88;;;8.48;;
26536;SDS011;14204;51.262;5.488;2022-12-20T14:50:49;13.25;;;6.47;;
26536;SDS011;14204;51.262;5.488;2022-12-20T14:53:20;8.52;;;6.38;;
26536;SDS011;14204;51.262;5.488;2022-12-20T14:55:49;13.85;;;8.27;;
26536;SDS011;14204;51.262;5.488;2022-12-20T14:58:28;12.20;;;8.48;;
26536;SDS011;14204;51.262;5.488;2022-12-20T15:03:25;9.25;;;5.72;;
26536;SDS011;14204;51.262;5.488;2022-12-20T15:05:54;10.75;;;6.10;;
26536;SDS011;14204;51.262;5.488;2022-12-20T15:08:23;12.40;;;6.40;;
26536;SDS011;14204;51.262;5.488;2022-12-20T15:13:43;11.55;;;6.15;;
26536;SDS011;14204;51.262;5.488;2022-12-20T15:16:20;10.32;;;6.65;;
26536;SDS011;14204;51.262;5.488;2022-12-20T15:18:49;8.93;;;6.05;;
26536;SDS011;14204;51.262;5.488;2022-12-20T15:24:02;18.15;;;6.97;;
26536;SDS011;14204;51.262;5.488;2022-12-20T15:26:33;7.38;;;6.10;;
26536;SDS011;14204;51.262;5.488;2022-12-20T15:28:59;11.23;;;6.97;;
26536;SDS011;14204;51.262;5.488;2022-12-20T15:31:25;11.32;;;7.20;;
26536;SDS011;14204;51.262;5.488;2022-12-20T15:33:52;12.32;;;7.32;;
26536;SDS011;14204;51.262;5.488;2022-12-20T15:36:23;11.00;;;7.20;;
26536;SDS011;14204;51.262;5.488;2022-12-20T15:38:52;14.60;;;7.75;;
26536;SDS011;14204;51.262;5.488;2022-12-20T15:41:21;12.88;;;6.88;;
26536;SDS011;14204;51.262;5.488;2022-12-20T15:43:53;17.15;;;8.65;;
26536;SDS011;14204;51.262;5.488;2022-12-20T15:46:40;13.35;;;8.07;;
26536;SDS011;14204;51.262;5.488;2022-12-20T15:49:07;8.73;;;6.88;;
26536;SDS011;14204;51.262;5.488;2022-12-20T15:51:38;10.10;;;7.00;;
26536;SDS011;14204;51.262;5.488;2022-12-20T15:54:06;11.70;;;7.00;;
26536;SDS011;14204;51.262;5.488;2022-12-20T15:56:55;11.35;;;7.82;;
26536;SDS011;14204;51.262;5.488;2022-12-20T15:59:24;11.40;;;7.32;;
26536;SDS011;14204;51.262;5.488;2022-12-20T16:01:49;11.02;;;6.88;;
26536;SDS011;14204;51.262;5.488;2022-12-20T16:04:16;9.52;;;7.03;;
26536;SDS011;14204;51.262;5.488;2022-12-20T16:06:44;9.82;;;7.13;;
26536;SDS011;14204;51.262;5.488;2022-12-20T16:09:11;10.60;;;7.53;;
26536;SDS011;14204;51.262;5.488;2022-12-20T16:11:38;13.23;;;8.15;;
26536;SDS011;14204;51.262;5.488;2022-12-20T16:14:04;10.68;;;7.05;;
26536;SDS011;14204;51.262;5.488;2022-12-20T16:16:33;16.90;;;8.48;;
26536;SDS011;14204;51.262;5.488;2022-12-20T16:19:00;13.05;;;8.07;;
26536;SDS011;14204;51.262;5.488;2022-12-20T16:21:33;14.40;;;8.32;;
26536;SDS011;14204;51.262;5.488;2022-12-20T16:24:08;13.57;;;8.35;;
26536;SDS011;14204;51.262;5.488;2022-12-20T16:26:37;12.40;;;8.13;;
26536;SDS011;14204;51.262;5.488;2022-12-20T16:29:03;15.85;;;9.27;;
26536;SDS011;14204;51.262;5.488;2022-12-20T16:31:33;21.35;;;9.93;;
26536;SDS011;14204;51.262;5.488;2022-12-20T16:34:11;20.05;;;9.57;;
26536;SDS011;14204;51.262;5.488;2022-12-20T16:36:38;16.77;;;9.27;;
26536;SDS011;14204;51.262;5.488;2022-12-20T16:39:03;13.32;;;9.55;;
26536;SDS011;14204;51.262;5.488;2022-12-20T16:41:30;18.73;;;11.75;;
26536;SDS011;14204;51.262;5.488;2022-12-20T16:43:58;14.55;;;10.18;;
26536;SDS011;14204;51.262;5.488;2022-12-20T16:46:26;16.50;;;11.07;;
26536;SDS011;14204;51.262;5.488;2022-12-20T16:48:54;16.85;;;9.70;;
26536;SDS011;14204;51.262;5.488;2022-12-20T16:54:07;15.35;;;10.18;;
26536;SDS011;14204;51.262;5.488;2022-12-20T16:56:54;16.40;;;11.48;;
26536;SDS011;14204;51.262;5.488;2022-12-20T16:59:24;17.73;;;11.30;;
26536;SDS011;14204;51.262;5.488;2022-12-20T17:01:54;18.35;;;10.32;;
26536;SDS011;14204;51.262;5.488;2022-12-20T17:04:21;21.13;;;12.75;;
26536;SDS011;14204;51.262;5.488;2022-12-20T17:06:47;17.35;;;11.07;;